sensor_id;sensor_type;location;lat;lon;timestamp;pressure;altitude;pressure_sealevel;temperature;humidity
28267;BME280;15525;45.568;5.448;2023-05-01T00:00:49;97985.63;;;16.72;59.96
28267;BME280;15525;45.568;5.448;2023-05-01T00:03:15;98004.44;;;16.86;59.66
28267;BME280;15525;45.568;5.448;2023-05-01T00:05:44;97984.63;;;16.68;59.97
28267;BME280;15525;45.568;5.448;2023-05-01T00:08:10;97979.72;;;16.70;59.61
28267;BME280;15525;45.568;5.448;2023-05-01T00:10:36;97997.59;;;16.80;59.36
28267;BME280;15525;45.568;5.448;2023-05-01T00:13:03;97976.53;;;16.68;59.50
28267;BME280;15525;45.568;5.448;2023-05-01T00:15:29;97999.63;;;16.74;59.56
28267;BME280;15525;45.568;5.448;2023-05-01T00:17:54;97961.44;;;16.45;60.17
28267;BME280;15525;45.568;5.448;2023-05-01T00:20:20;97974.66;;;16.47;59.88
28267;BME280;15525;45.568;5.448;2023-05-01T00:22:46;97948.78;;;16.32;59.90
28267;BME280;15525;45.568;5.448;2023-05-01T00:25:12;97951.03;;;16.39;60.08
28267;BME280;15525;45.568;5.448;2023-05-01T00:27:38;97972.47;;;16.57;60.08
28267;BME280;15525;45.568;5.448;2023-05-01T00:30:03;97961.50;;;16.54;59.62
28267;BME280;15525;45.568;5.448;2023-05-01T00:32:29;97964.69;;;16.56;60.02
28267;BME280;15525;45.568;5.448;2023-05-01T00:34:54;97956.03;;;16.45;60.01
28267;BME280;15525;45.568;5.448;2023-05-01T00:37:22;97921.91;;;16.27;59.93
28267;BME280;15525;45.568;5.448;2023-05-01T00:39:47;97952.56;;;16.53;59.90
28267;BME280;15525;45.568;5.448;2023-05-01T00:42:13;97938.78;;;16.33;60.13
28267;BME280;15525;45.568;5.448;2023-05-01T00:44:38;97956.53;;;16.47;59.65
28267;BME280;15525;45.568;5.448;2023-05-01T00:47:04;97983.81;;;16.68;60.18
28267;BME280;15525;45.568;5.448;2023-05-01T00:49:30;97968.19;;;16.56;60.00
28267;BME280;15525;45.568;5.448;2023-05-01T00:51:55;97962.06;;;16.42;60.40
28267;BME280;15525;45.568;5.448;2023-05-01T00:54:23;97975.94;;;16.49;60.25
28267;BME280;15525;45.568;5.448;2023-05-01T00:56:50;97956.19;;;16.40;60.46
28267;BME280;15525;45.568;5.448;2023-05-01T00:59:15;97970.16;;;16.42;60.26
28267;BME280;15525;45.568;5.448;2023-05-01T01:01:42;97961.84;;;16.39;60.56
28267;BME280;15525;45.568;5.448;2023-05-01T01:04:07;97946.97;;;16.41;60.18
28267;BME280;15525;45.568;5.448;2023-05-01T01:06:57;97937.38;;;16.35;60.57
28267;BME280;15525;45.568;5.448;2023-05-01T01:12:31;97964.69;;;16.56;60.72
28267;BME280;15525;45.568;5.448;2023-05-01T01:15:29;97951.00;;;16.52;61.17
28267;BME280;15525;45.568;5.448;2023-05-01T01:20:54;97945.09;;;16.50;60.74
28267;BME280;15525;45.568;5.448;2023-05-01T01:29:46;97909.13;;;16.41;61.37
28267;BME280;15525;45.568;5.448;2023-05-01T01:35:18;97907.88;;;16.47;60.64
28267;BME280;15525;45.568;5.448;2023-05-01T01:38:00;97931.28;;;16.52;61.13
28267;BME280;15525;45.568;5.448;2023-05-01T01:40:54;97932.50;;;16.46;62.16
28267;BME280;15525;45.568;5.448;2023-05-01T01:43:22;97927.50;;;16.39;60.61
28267;BME280;15525;45.568;5.448;2023-05-01T01:45:53;97909.50;;;16.26;61.27
28267;BME280;15525;45.568;5.448;2023-05-01T01:48:25;97920.31;;;16.26;61.01
28267;BME280;15525;45.568;5.448;2023-05-01T01:50:57;97899.25;;;16.15;61.59
28267;BME280;15525;45.568;5.448;2023-05-01T01:53:25;97922.09;;;16.39;61.24
28267;BME280;15525;45.568;5.448;2023-05-01T01:55:53;97925.50;;;16.45;61.08
28267;BME280;15525;45.568;5.448;2023-05-01T01:58:20;97890.38;;;16.23;61.42
28267;BME280;15525;45.568;5.448;2023-05-01T02:00:51;97897.06;;;16.25;61.21
28267;BME280;15525;45.568;5.448;2023-05-01T02:03:18;97923.63;;;16.45;61.40
28267;BME280;15525;45.568;5.448;2023-05-01T02:05:45;97903.44;;;16.43;60.95
28267;BME280;15525;45.568;5.448;2023-05-01T02:08:13;97921.00;;;16.62;61.29
28267;BME280;15525;45.568;5.448;2023-05-01T02:10:41;97934.59;;;16.79;60.65
28267;BME280;15525;45.568;5.448;2023-05-01T02:13:08;97904.31;;;16.60;60.90
28267;BME280;15525;45.568;5.448;2023-05-01T02:15:36;97942.75;;;16.88;61.04
28267;BME280;15525;45.568;5.448;2023-05-01T02:18:02;97910.41;;;16.74;60.73
28267;BME280;15525;45.568;5.448;2023-05-01T02:20:29;97945.34;;;17.01;60.66
28267;BME280;15525;45.568;5.448;2023-05-01T02:22:56;97943.59;;;16.97;61.06
28267;BME280;15525;45.568;5.448;2023-05-01T02:25:22;97922.66;;;16.80;61.25
28267;BME280;15525;45.568;5.448;2023-05-01T02:27:58;97941.94;;;16.87;61.67
28267;BME280;15525;45.568;5.448;2023-05-01T02:30:25;97917.09;;;16.77;61.17
28267;BME280;15525;45.568;5.448;2023-05-01T02:32:51;97904.84;;;16.79;60.93
28267;BME280;15525;45.568;5.448;2023-05-01T02:35:16;97926.84;;;16.86;61.25
28267;BME280;15525;45.568;5.448;2023-05-01T02:37:45;97909.28;;;16.75;61.13
28267;BME280;15525;45.568;5.448;2023-05-01T02:40:11;97914.69;;;16.75;61.19
28267;BME280;15525;45.568;5.448;2023-05-01T02:42:41;97911.97;;;16.67;61.70
28267;BME280;15525;45.568;5.448;2023-05-01T02:45:10;97874.34;;;16.48;61.60
28267;BME280;15525;45.568;5.448;2023-05-01T02:47:40;97898.75;;;16.65;61.59
28267;BME280;15525;45.568;5.448;2023-05-01T02:50:06;97894.09;;;16.57;61.65
28267;BME280;15525;45.568;5.448;2023-05-01T02:52:36;97910.81;;;16.59;62.14
28267;BME280;15525;45.568;5.448;2023-05-01T02:55:02;97919.59;;;16.65;62.01
28267;BME280;15525;45.568;5.448;2023-05-01T02:57:28;97913.53;;;16.59;62.19
28267;BME280;15525;45.568;5.448;2023-05-01T02:59:53;97899.03;;;16.55;62.05
28267;BME280;15525;45.568;5.448;2023-05-01T03:02:18;97893.75;;;16.50;62.37
28267;BME280;15525;45.568;5.448;2023-05-01T03:04:44;97888.53;;;16.54;62.03
28267;BME280;15525;45.568;5.448;2023-05-01T03:07:09;97898.16;;;16.68;61.66
28267;BME280;15525;45.568;5.448;2023-05-01T03:09:35;97902.47;;;16.78;61.66
28267;BME280;15525;45.568;5.448;2023-05-01T03:12:01;97887.66;;;16.75;61.61
28267;BME280;15525;45.568;5.448;2023-05-01T03:14:27;97903.13;;;16.83;61.49
28267;BME280;15525;45.568;5.448;2023-05-01T03:16:53;97887.97;;;16.74;61.85
28267;BME280;15525;45.568;5.448;2023-05-01T03:19:18;97883.03;;;16.67;61.79
28267;BME280;15525;45.568;5.448;2023-05-01T03:21:44;97884.09;;;16.58;61.63
28267;BME280;15525;45.568;5.448;2023-05-01T03:24:09;97898.94;;;16.69;61.98
28267;BME280;15525;45.568;5.448;2023-05-01T03:26:35;97897.88;;;16.78;62.00
28267;BME280;15525;45.568;5.448;2023-05-01T03:29:00;97870.75;;;16.61;61.56
28267;BME280;15525;45.568;5.448;2023-05-01T03:31:25;97895.00;;;16.75;61.88
28267;BME280;15525;45.568;5.448;2023-05-01T03:33:51;97895.16;;;16.78;62.20
28267;BME280;15525;45.568;5.448;2023-05-01T03:36:16;97881.09;;;16.59;61.68
28267;BME280;15525;45.568;5.448;2023-05-01T03:38:42;97899.25;;;16.67;61.93
28267;BME280;15525;45.568;5.448;2023-05-01T03:41:08;97894.03;;;16.71;62.29
28267;BME280;15525;45.568;5.448;2023-05-01T03:43:34;97898.31;;;16.72;61.80
28267;BME280;15525;45.568;5.448;2023-05-01T03:45:59;97905.66;;;16.80;61.78
28267;BME280;15525;45.568;5.448;2023-05-01T03:48:25;97909.81;;;16.86;61.67
28267;BME280;15525;45.568;5.448;2023-05-01T03:50:51;97900.44;;;16.83;61.97
28267;BME280;15525;45.568;5.448;2023-05-01T03:53:16;97924.09;;;16.78;62.11
28267;BME280;15525;45.568;5.448;2023-05-01T03:55:42;97919.22;;;16.58;62.37
28267;BME280;15525;45.568;5.448;2023-05-01T03:58:08;97927.88;;;16.68;62.08
28267;BME280;15525;45.568;5.448;2023-05-01T04:00:35;97922.81;;;16.75;61.90
28267;BME280;15525;45.568;5.448;2023-05-01T04:03:01;97914.66;;;16.67;62.03
28267;BME280;15525;45.568;5.448;2023-05-01T04:05:27;97904.78;;;16.62;62.05
28267;BME280;15525;45.568;5.448;2023-05-01T04:07:52;97917.19;;;16.63;62.43
28267;BME280;15525;45.568;5.448;2023-05-01T04:10:18;97886.78;;;16.49;62.01
28267;BME280;15525;45.568;5.448;2023-05-01T04:12:43;97925.66;;;16.70;62.53
28267;BME280;15525;45.568;5.448;2023-05-01T04:15:09;97890.91;;;16.47;62.33
28267;BME280;15525;45.568;5.448;2023-05-01T04:17:35;97885.22;;;16.57;62.45
28267;BME280;15525;45.568;5.448;2023-05-01T04:20:01;97935.09;;;16.81;61.99
28267;BME280;15525;45.568;5.448;2023-05-01T04:22:28;97906.19;;;16.60;62.32
28267;BME280;15525;45.568;5.448;2023-05-01T04:24:54;97918.66;;;16.69;62.55
28267;BME280;15525;45.568;5.448;2023-05-01T04:27:20;97911.44;;;16.56;62.45
28267;BME280;15525;45.568;5.448;2023-05-01T04:29:46;97917.34;;;16.58;62.33
28267;BME280;15525;45.568;5.448;2023-05-01T04:32:11;97926.63;;;16.74;62.26
28267;BME280;15525;45.568;5.448;2023-05-01T04:34:36;97928.34;;;16.70;62.22
28267;BME280;15525;45.568;5.448;2023-05-01T04:37:02;97906.56;;;16.67;61.74
28267;BME280;15525;45.568;5.448;2023-05-01T04:39:28;97935.16;;;16.98;61.98
28267;BME280;15525;45.568;5.448;2023-05-01T04:41:53;97917.25;;;16.80;61.35
28267;BME280;15525;45.568;5.448;2023-05-01T04:44:19;97938.44;;;16.87;61.90
28267;BME280;15525;45.568;5.448;2023-05-01T04:46:45;97901.00;;;16.63;61.78
28267;BME280;15525;45.568;5.448;2023-05-01T04:49:10;97889.97;;;16.60;61.35
28267;BME280;15525;45.568;5.448;2023-05-01T04:51:36;97930.31;;;16.78;61.36
28267;BME280;15525;45.568;5.448;2023-05-01T04:54:01;97911.66;;;16.68;61.38
28267;BME280;15525;45.568;5.448;2023-05-01T04:56:29;97941.81;;;16.92;61.23
28267;BME280;15525;45.568;5.448;2023-05-01T04:58:54;97903.72;;;16.72;60.87
28267;BME280;15525;45.568;5.448;2023-05-01T05:01:19;97926.03;;;16.86;60.99
28267;BME280;15525;45.568;5.448;2023-05-01T05:03:45;97952.03;;;17.04;60.74
28267;BME280;15525;45.568;5.448;2023-05-01T05:06:10;97919.50;;;16.87;60.67
28267;BME280;15525;45.568;5.448;2023-05-01T05:08:36;97939.41;;;16.91;60.86
28267;BME280;15525;45.568;5.448;2023-05-01T05:11:01;97933.69;;;16.84;60.41
28267;BME280;15525;45.568;5.448;2023-05-01T05:13:27;97935.41;;;16.80;60.82
28267;BME280;15525;45.568;5.448;2023-05-01T05:15:53;97928.72;;;16.77;60.83
28267;BME280;15525;45.568;5.448;2023-05-01T05:18:18;97941.94;;;16.79;60.90
28267;BME280;15525;45.568;5.448;2023-05-01T05:20:44;97913.09;;;16.74;60.38
28267;BME280;15525;45.568;5.448;2023-05-01T05:23:09;97948.28;;;16.83;60.78
28267;BME280;15525;45.568;5.448;2023-05-01T05:25:35;97929.69;;;16.81;60.56
28267;BME280;15525;45.568;5.448;2023-05-01T05:28:00;97957.88;;;16.89;60.72
28267;BME280;15525;45.568;5.448;2023-05-01T05:30:26;97961.34;;;16.89;60.75
28267;BME280;15525;45.568;5.448;2023-05-01T05:32:52;97964.59;;;16.69;61.28
28267;BME280;15525;45.568;5.448;2023-05-01T05:35:17;97958.47;;;16.86;61.12
28267;BME280;15525;45.568;5.448;2023-05-01T05:37:43;97968.63;;;16.80;60.66
28267;BME280;15525;45.568;5.448;2023-05-01T05:40:09;97960.19;;;16.73;61.10
28267;BME280;15525;45.568;5.448;2023-05-01T05:42:34;97969.28;;;16.77;60.91
28267;BME280;15525;45.568;5.448;2023-05-01T05:45:00;97965.00;;;16.85;60.86
28267;BME280;15525;45.568;5.448;2023-05-01T05:47:25;97946.91;;;16.94;60.48
28267;BME280;15525;45.568;5.448;2023-05-01T05:49:51;97970.81;;;17.00;60.63
28267;BME280;15525;45.568;5.448;2023-05-01T05:52:16;97970.88;;;16.87;60.83
28267;BME280;15525;45.568;5.448;2023-05-01T05:54:42;97982.50;;;16.87;60.87
28267;BME280;15525;45.568;5.448;2023-05-01T05:57:07;97953.53;;;16.79;60.71
28267;BME280;15525;45.568;5.448;2023-05-01T05:59:33;97973.13;;;16.85;61.01
28267;BME280;15525;45.568;5.448;2023-05-01T06:01:59;97966.81;;;16.98;60.36
28267;BME280;15525;45.568;5.448;2023-05-01T06:04:24;97993.59;;;17.16;60.26
28267;BME280;15525;45.568;5.448;2023-05-01T06:06:50;97954.72;;;16.95;60.39
28267;BME280;15525;45.568;5.448;2023-05-01T06:09:15;97976.41;;;17.12;59.88
28267;BME280;15525;45.568;5.448;2023-05-01T06:11:43;97972.78;;;17.17;59.71
28267;BME280;15525;45.568;5.448;2023-05-01T06:14:09;97975.19;;;17.18;59.70
28267;BME280;15525;45.568;5.448;2023-05-01T06:16:35;97984.84;;;17.11;60.05
28267;BME280;15525;45.568;5.448;2023-05-01T06:19:00;97968.47;;;17.16;60.01
28267;BME280;15525;45.568;5.448;2023-05-01T06:21:26;97957.81;;;17.19;59.69
28267;BME280;15525;45.568;5.448;2023-05-01T06:23:51;97951.59;;;17.10;59.75
28267;BME280;15525;45.568;5.448;2023-05-01T06:26:16;97968.66;;;17.19;59.96
28267;BME280;15525;45.568;5.448;2023-05-01T06:28:42;98004.59;;;17.59;59.49
28267;BME280;15525;45.568;5.448;2023-05-01T06:31:07;97974.38;;;17.26;59.81
28267;BME280;15525;45.568;5.448;2023-05-01T06:33:33;97999.03;;;17.55;59.67
28267;BME280;15525;45.568;5.448;2023-05-01T06:35:58;97990.63;;;17.65;59.17
28267;BME280;15525;45.568;5.448;2023-05-01T06:38:26;97992.84;;;17.72;58.92
28267;BME280;15525;45.568;5.448;2023-05-01T06:40:52;98001.09;;;17.50;59.41
28267;BME280;15525;45.568;5.448;2023-05-01T06:43:17;97980.75;;;17.22;59.89
28267;BME280;15525;45.568;5.448;2023-05-01T06:45:43;97953.25;;;17.37;59.01
28267;BME280;15525;45.568;5.448;2023-05-01T06:48:08;97978.50;;;17.63;58.79
28267;BME280;15525;45.568;5.448;2023-05-01T06:50:34;97994.78;;;17.88;58.27
28267;BME280;15525;45.568;5.448;2023-05-01T06:52:59;98005.50;;;18.10;57.76
28267;BME280;15525;45.568;5.448;2023-05-01T06:55:27;98001.66;;;18.11;57.71
28267;BME280;15525;45.568;5.448;2023-05-01T06:57:55;97940.13;;;17.61;57.97
28267;BME280;15525;45.568;5.448;2023-05-01T07:00:21;98005.78;;;17.92;58.10
28267;BME280;15525;45.568;5.448;2023-05-01T07:02:46;98006.78;;;18.04;57.94
28267;BME280;15525;45.568;5.448;2023-05-01T07:05:12;97994.31;;;17.95;57.37
28267;BME280;15525;45.568;5.448;2023-05-01T07:07:37;97980.63;;;17.91;57.68
28267;BME280;15525;45.568;5.448;2023-05-01T07:10:03;98004.06;;;18.47;56.64
28267;BME280;15525;45.568;5.448;2023-05-01T07:12:28;97993.84;;;18.52;56.52
28267;BME280;15525;45.568;5.448;2023-05-01T07:14:54;98017.41;;;18.86;55.74
28267;BME280;15525;45.568;5.448;2023-05-01T07:17:21;98020.03;;;18.40;56.44
28267;BME280;15525;45.568;5.448;2023-05-01T07:19:46;98013.91;;;18.77;55.60
28267;BME280;15525;45.568;5.448;2023-05-01T07:22:12;98017.78;;;18.59;56.19
28267;BME280;15525;45.568;5.448;2023-05-01T07:24:37;97996.72;;;18.64;55.55
28267;BME280;15525;45.568;5.448;2023-05-01T07:27:03;98024.28;;;18.83;55.46
28267;BME280;15525;45.568;5.448;2023-05-01T07:29:28;98004.31;;;18.88;54.87
28267;BME280;15525;45.568;5.448;2023-05-01T07:31:54;98010.91;;;18.44;55.44
28267;BME280;15525;45.568;5.448;2023-05-01T07:34:19;98025.41;;;18.14;56.31
28267;BME280;15525;45.568;5.448;2023-05-01T07:36:45;98019.03;;;18.70;55.10
28267;BME280;15525;45.568;5.448;2023-05-01T07:39:10;98011.72;;;18.53;55.06
28267;BME280;15525;45.568;5.448;2023-05-01T07:41:36;98008.53;;;18.26;55.21
28267;BME280;15525;45.568;5.448;2023-05-01T07:44:02;97995.78;;;18.43;54.83
28267;BME280;15525;45.568;5.448;2023-05-01T07:46:27;98005.81;;;18.26;54.98
28267;BME280;15525;45.568;5.448;2023-05-01T07:48:53;98011.25;;;18.34;55.05
28267;BME280;15525;45.568;5.448;2023-05-01T07:51:19;98006.63;;;18.60;54.47
28267;BME280;15525;45.568;5.448;2023-05-01T07:53:44;98007.91;;;18.37;54.85
28267;BME280;15525;45.568;5.448;2023-05-01T07:56:11;97997.81;;;18.63;54.34
28267;BME280;15525;45.568;5.448;2023-05-01T07:58:37;97996.56;;;18.69;54.27
28267;BME280;15525;45.568;5.448;2023-05-01T08:01:03;98009.72;;;18.88;53.90
28267;BME280;15525;45.568;5.448;2023-05-01T08:03:30;98006.41;;;18.82;53.83
28267;BME280;15525;45.568;5.448;2023-05-01T08:05:56;98033.56;;;18.65;54.61
28267;BME280;15525;45.568;5.448;2023-05-01T08:08:21;98043.59;;;18.31;55.26
28267;BME280;15525;45.568;5.448;2023-05-01T08:10:47;98029.53;;;18.29;54.86
28267;BME280;15525;45.568;5.448;2023-05-01T08:13:13;98012.38;;;18.50;54.60
28267;BME280;15525;45.568;5.448;2023-05-01T08:15:38;98019.13;;;18.99;53.67
28267;BME280;15525;45.568;5.448;2023-05-01T08:18:07;98026.28;;;19.03;53.43
28267;BME280;15525;45.568;5.448;2023-05-01T08:20:32;98025.44;;;18.57;54.32
28267;BME280;15525;45.568;5.448;2023-05-01T08:22:59;98013.81;;;18.39;54.67
28267;BME280;15525;45.568;5.448;2023-05-01T08:25:24;97999.50;;;18.93;53.24
28267;BME280;15525;45.568;5.448;2023-05-01T08:27:50;98010.78;;;19.12;53.02
28267;BME280;15525;45.568;5.448;2023-05-01T08:30:15;98016.94;;;19.38;52.76
28267;BME280;15525;45.568;5.448;2023-05-01T08:32:41;98010.72;;;18.83;53.79
28267;BME280;15525;45.568;5.448;2023-05-01T08:35:06;98008.28;;;18.99;53.64
28267;BME280;15525;45.568;5.448;2023-05-01T08:37:32;98015.47;;;18.86;53.93
28267;BME280;15525;45.568;5.448;2023-05-01T08:39:58;98035.97;;;19.30;53.05
28267;BME280;15525;45.568;5.448;2023-05-01T08:42:24;98013.00;;;19.19;53.24
28267;BME280;15525;45.568;5.448;2023-05-01T08:44:51;98023.13;;;19.47;52.61
28267;BME280;15525;45.568;5.448;2023-05-01T08:47:18;98019.50;;;18.80;53.54
28267;BME280;15525;45.568;5.448;2023-05-01T08:49:44;98035.41;;;18.90;54.51
28267;BME280;15525;45.568;5.448;2023-05-01T08:52:11;98018.25;;;19.32;53.33
28267;BME280;15525;45.568;5.448;2023-05-01T08:54:41;98018.81;;;19.46;52.97
28267;BME280;15525;45.568;5.448;2023-05-01T08:57:08;98017.84;;;19.05;53.36
28267;BME280;15525;45.568;5.448;2023-05-01T08:59:35;98017.75;;;18.76;53.96
28267;BME280;15525;45.568;5.448;2023-05-01T09:02:02;98031.44;;;18.96;53.53
28267;BME280;15525;45.568;5.448;2023-05-01T09:04:36;98033.19;;;18.84;53.79
28267;BME280;15525;45.568;5.448;2023-05-01T09:07:02;98024.97;;;19.09;53.26
28267;BME280;15525;45.568;5.448;2023-05-01T09:09:29;98023.88;;;19.56;51.97
28267;BME280;15525;45.568;5.448;2023-05-01T09:12:11;98004.19;;;19.30;51.58
28267;BME280;15525;45.568;5.448;2023-05-01T09:14:37;98015.13;;;20.00;50.93
28267;BME280;15525;45.568;5.448;2023-05-01T09:17:03;98019.44;;;19.81;50.93
28267;BME280;15525;45.568;5.448;2023-05-01T09:19:28;98027.25;;;20.32;49.71
28267;BME280;15525;45.568;5.448;2023-05-01T09:21:54;98026.25;;;21.46;47.93
28267;BME280;15525;45.568;5.448;2023-05-01T09:24:22;98035.22;;;21.47;47.65
28267;BME280;15525;45.568;5.448;2023-05-01T09:26:49;98006.84;;;21.36;47.82
28267;BME280;15525;45.568;5.448;2023-05-01T09:29:41;98040.19;;;21.33;47.62
28267;BME280;15525;45.568;5.448;2023-05-01T09:32:22;98030.88;;;21.34;48.20
28267;BME280;15525;45.568;5.448;2023-05-01T09:35:13;98039.50;;;20.38;49.50
28267;BME280;15525;45.568;5.448;2023-05-01T09:37:40;98042.47;;;20.04;50.45
28267;BME280;15525;45.568;5.448;2023-05-01T09:40:10;98016.19;;;20.37;49.29
28267;BME280;15525;45.568;5.448;2023-05-01T09:42:48;97998.09;;;20.20;49.54
28267;BME280;15525;45.568;5.448;2023-05-01T09:45:14;98029.69;;;20.25;49.84
28267;BME280;15525;45.568;5.448;2023-05-01T09:47:40;98035.22;;;20.37;49.36
28267;BME280;15525;45.568;5.448;2023-05-01T09:50:08;98036.66;;;20.14;49.88
28267;BME280;15525;45.568;5.448;2023-05-01T09:52:34;98020.72;;;20.65;48.92
28267;BME280;15525;45.568;5.448;2023-05-01T09:55:29;98042.31;;;20.50;48.63
28267;BME280;15525;45.568;5.448;2023-05-01T09:57:54;98012.44;;;20.41;49.13
28267;BME280;15525;45.568;5.448;2023-05-01T10:00:20;98018.03;;;20.24;49.26
28267;BME280;15525;45.568;5.448;2023-05-01T10:02:47;98011.56;;;20.49;48.31
28267;BME280;15525;45.568;5.448;2023-05-01T10:05:13;98032.91;;;21.13;47.81
28267;BME280;15525;45.568;5.448;2023-05-01T10:07:53;98014.16;;;20.66;48.25
28267;BME280;15525;45.568;5.448;2023-05-01T10:10:21;98036.28;;;20.98;47.75
28267;BME280;15525;45.568;5.448;2023-05-01T10:12:47;98020.69;;;20.86;47.50
28267;BME280;15525;45.568;5.448;2023-05-01T10:15:13;98035.59;;;21.01;47.40
28267;BME280;15525;45.568;5.448;2023-05-01T10:17:40;98036.03;;;21.47;46.31
28267;BME280;15525;45.568;5.448;2023-05-01T10:20:07;98042.91;;;21.21;46.49
28267;BME280;15525;45.568;5.448;2023-05-01T10:22:33;98047.41;;;21.73;46.05
28267;BME280;15525;45.568;5.448;2023-05-01T10:24:59;98029.91;;;21.98;44.70
28267;BME280;15525;45.568;5.448;2023-05-01T10:27:25;98045.28;;;21.22;45.51
28267;BME280;15525;45.568;5.448;2023-05-01T10:29:54;98002.97;;;21.37;44.99
28267;BME280;15525;45.568;5.448;2023-05-01T10:32:19;98019.00;;;21.86;45.13
28267;BME280;15525;45.568;5.448;2023-05-01T10:35:03;98016.84;;;22.04;43.68
28267;BME280;15525;45.568;5.448;2023-05-01T10:38:03;98039.22;;;21.97;43.99
28267;BME280;15525;45.568;5.448;2023-05-01T10:45:45;98015.31;;;22.18;43.18
28267;BME280;15525;45.568;5.448;2023-05-01T10:48:11;98037.19;;;21.82;44.58
28267;BME280;15525;45.568;5.448;2023-05-01T10:53:38;98045.66;;;22.17;43.35
28267;BME280;15525;45.568;5.448;2023-05-01T10:56:04;98022.81;;;22.61;43.12
28267;BME280;15525;45.568;5.448;2023-05-01T11:01:34;98028.66;;;24.11;40.63
28267;BME280;15525;45.568;5.448;2023-05-01T11:04:49;98039.47;;;22.44;42.87
28267;BME280;15525;45.568;5.448;2023-05-01T11:09:52;98035.94;;;21.80;44.71
28267;BME280;15525;45.568;5.448;2023-05-01T11:15:11;98013.03;;;23.30;42.27
28267;BME280;15525;45.568;5.448;2023-05-01T11:20:13;98011.56;;;22.90;40.91
28267;BME280;15525;45.568;5.448;2023-05-01T11:22:57;98001.38;;;22.08;41.84
28267;BME280;15525;45.568;5.448;2023-05-01T11:25:30;97996.88;;;21.76;41.59
28267;BME280;15525;45.568;5.448;2023-05-01T11:27:58;98015.97;;;21.76;42.14
28267;BME280;15525;45.568;5.448;2023-05-01T11:30:24;98004.13;;;21.84;42.06
28267;BME280;15525;45.568;5.448;2023-05-01T11:32:50;98024.59;;;21.78;42.67
28267;BME280;15525;45.568;5.448;2023-05-01T11:35:18;97973.69;;;21.22;42.80
28267;BME280;15525;45.568;5.448;2023-05-01T11:37:44;98019.72;;;22.35;42.05
28267;BME280;15525;45.568;5.448;2023-05-01T11:40:21;97992.94;;;22.13;41.55
28267;BME280;15525;45.568;5.448;2023-05-01T11:42:48;98023.19;;;22.08;42.42
28267;BME280;15525;45.568;5.448;2023-05-01T11:45:14;98014.94;;;22.71;41.44
28267;BME280;15525;45.568;5.448;2023-05-01T11:47:40;98000.31;;;23.69;39.27
28267;BME280;15525;45.568;5.448;2023-05-01T11:50:07;97995.00;;;23.91;39.29
28267;BME280;15525;45.568;5.448;2023-05-01T11:52:50;98007.44;;;23.58;39.17
28267;BME280;15525;45.568;5.448;2023-05-01T11:55:19;97991.25;;;23.65;39.71
28267;BME280;15525;45.568;5.448;2023-05-01T11:57:51;97994.22;;;23.75;38.68
28267;BME280;15525;45.568;5.448;2023-05-01T12:00:28;97988.97;;;23.20;39.43
28267;BME280;15525;45.568;5.448;2023-05-01T12:03:05;97985.09;;;23.21;40.28
28267;BME280;15525;45.568;5.448;2023-05-01T12:05:31;97984.28;;;23.21;40.03
28267;BME280;15525;45.568;5.448;2023-05-01T12:10:31;97983.41;;;23.17;39.70
28267;BME280;15525;45.568;5.448;2023-05-01T12:12:57;97969.84;;;23.36;39.00
28267;BME280;15525;45.568;5.448;2023-05-01T12:15:23;97987.63;;;23.61;39.34
28267;BME280;15525;45.568;5.448;2023-05-01T12:17:49;97962.19;;;24.64;37.21
28267;BME280;15525;45.568;5.448;2023-05-01T12:20:14;97963.41;;;24.89;36.62
28267;BME280;15525;45.568;5.448;2023-05-01T12:22:49;97961.97;;;25.17;34.96
28267;BME280;15525;45.568;5.448;2023-05-01T12:25:15;97967.31;;;24.12;35.72
28267;BME280;15525;45.568;5.448;2023-05-01T12:27:44;97952.91;;;23.96;35.22
28267;BME280;15525;45.568;5.448;2023-05-01T12:30:10;97948.94;;;25.11;34.72
28267;BME280;15525;45.568;5.448;2023-05-01T12:32:36;97919.56;;;26.12;33.36
28267;BME280;15525;45.568;5.448;2023-05-01T12:35:14;97943.53;;;25.89;32.80
28267;BME280;15525;45.568;5.448;2023-05-01T12:37:40;97933.22;;;26.38;33.47
28267;BME280;15525;45.568;5.448;2023-05-01T12:40:12;97978.56;;;26.25;32.52
28267;BME280;15525;45.568;5.448;2023-05-01T12:42:37;97920.25;;;24.82;32.96
28267;BME280;15525;45.568;5.448;2023-05-01T12:45:03;97963.06;;;24.90;33.42
28267;BME280;15525;45.568;5.448;2023-05-01T12:47:35;97960.22;;;26.03;32.94
28267;BME280;15525;45.568;5.448;2023-05-01T12:50:02;97970.72;;;26.27;31.86
28267;BME280;15525;45.568;5.448;2023-05-01T12:52:28;97966.19;;;26.38;32.08
28267;BME280;15525;45.568;5.448;2023-05-01T12:55:04;97976.97;;;26.86;31.52
28267;BME280;15525;45.568;5.448;2023-05-01T12:57:30;97976.34;;;26.67;31.97
28267;BME280;15525;45.568;5.448;2023-05-01T13:00:01;97983.00;;;26.07;31.54
28267;BME280;15525;45.568;5.448;2023-05-01T13:02:32;97995.03;;;26.25;31.22
28267;BME280;15525;45.568;5.448;2023-05-01T13:05:08;97979.22;;;26.44;30.60
28267;BME280;15525;45.568;5.448;2023-05-01T13:07:35;97983.72;;;26.59;30.50
28267;BME280;15525;45.568;5.448;2023-05-01T13:10:01;97981.84;;;26.08;32.31
28267;BME280;15525;45.568;5.448;2023-05-01T13:12:28;97980.75;;;26.42;31.94
28267;BME280;15525;45.568;5.448;2023-05-01T13:14:54;97973.53;;;26.01;31.60
28267;BME280;15525;45.568;5.448;2023-05-01T13:17:25;97968.41;;;26.29;31.06
28267;BME280;15525;45.568;5.448;2023-05-01T13:20:01;97960.66;;;27.04;29.92
28267;BME280;15525;45.568;5.448;2023-05-01T13:24:57;97952.09;;;25.32;31.78
28267;BME280;15525;45.568;5.448;2023-05-01T13:27:23;97961.69;;;23.70;34.57
28267;BME280;15525;45.568;5.448;2023-05-01T13:29:56;97963.72;;;23.58;34.12
28267;BME280;15525;45.568;5.448;2023-05-01T13:32:25;97965.91;;;25.65;31.94
28267;BME280;15525;45.568;5.448;2023-05-01T13:34:51;97981.72;;;26.27;31.40
28267;BME280;15525;45.568;5.448;2023-05-01T13:37:18;97975.06;;;25.98;31.78
28267;BME280;15525;45.568;5.448;2023-05-01T13:39:45;97967.78;;;26.42;30.68
28267;BME280;15525;45.568;5.448;2023-05-01T13:42:12;97977.59;;;26.73;31.29